sensor_id;sensor_type;location;lat;lon;timestamp;pressure;altitude;pressure_sealevel;temperature;humidity
59029;BME280;45919;51.420;5.454;2022-09-03T00:00:33;100958.63;;;18.01;44.10
59029;BME280;45919;51.420;5.454;2022-09-03T00:01:47;100950.72;;;18.01;44.17
59029;BME280;45919;51.420;5.454;2022-09-03T00:02:59;100954.22;;;18.01;44.26
59029;BME280;45919;51.420;5.454;2022-09-03T00:04:11;100948.06;;;18.01;44.17
59029;BME280;45919;51.420;5.454;2022-09-03T00:05:30;100924.50;;;17.85;44.40
59029;BME280;45919;51.420;5.454;2022-09-03T00:06:40;100939.34;;;17.94;44.43
59029;BME280;45919;51.420;5.454;2022-09-03T00:07:48;100943.78;;;17.92;44.37
59029;BME280;45919;51.420;5.454;2022-09-03T00:08:57;100938.56;;;17.89;44.33
59029;BME280;45919;51.420;5.454;2022-09-03T00:10:07;100933.31;;;17.86;44.32
59029;BME280;45919;51.420;5.454;2022-09-03T00:12:18;100941.25;;;17.86;44.40
59029;BME280;45919;51.420;5.454;2022-09-03T00:13:26;100943.88;;;17.87;44.42
59029;BME280;45919;51.420;5.454;2022-09-03T00:14:45;100948.28;;;17.87;44.49
59029;BME280;45919;51.420;5.454;2022-09-03T00:15:48;100944.78;;;17.83;44.51
59029;BME280;45919;51.420;5.454;2022-09-03T00:16:58;100939.47;;;17.88;44.49
59029;BME280;45919;51.420;5.454;2022-09-03T00:19:09;100951.00;;;17.80;44.39
59029;BME280;45919;51.420;5.454;2022-09-03T00:20:34;100947.34;;;17.91;44.25
59029;BME280;45919;51.420;5.454;2022-09-03T00:21:48;100878.47;;;17.40;44.58
59029;BME280;45919;51.420;5.454;2022-09-03T00:22:53;100948.41;;;17.76;44.27
59029;BME280;45919;51.420;5.454;2022-09-03T00:23:58;100948.41;;;17.76;44.49
59029;BME280;45919;51.420;5.454;2022-09-03T00:25:04;100951.06;;;17.76;44.43
59029;BME280;45919;51.420;5.454;2022-09-03T00:27:17;100931.78;;;17.69;44.38
59029;BME280;45919;51.420;5.454;2022-09-03T00:28:28;100939.66;;;17.72;44.70
59029;BME280;45919;51.420;5.454;2022-09-03T00:29:36;100937.91;;;17.71;44.82
59029;BME280;45919;51.420;5.454;2022-09-03T00:30:41;100936.13;;;17.72;44.69
59029;BME280;45919;51.420;5.454;2022-09-03T00:31:46;100906.50;;;17.49;44.73
59029;BME280;45919;51.420;5.454;2022-09-03T00:34:04;100921.25;;;17.64;44.68
59029;BME280;45919;51.420;5.454;2022-09-03T00:35:15;100949.34;;;17.73;44.66
59029;BME280;45919;51.420;5.454;2022-09-03T00:36:36;100932.56;;;17.76;44.46
59029;BME280;45919;51.420;5.454;2022-09-03T00:37:43;100943.25;;;17.66;44.72
59029;BME280;45919;51.420;5.454;2022-09-03T00:38:45;100938.91;;;17.62;45.11
59029;BME280;45919;51.420;5.454;2022-09-03T00:39:47;100940.69;;;17.62;44.81
59029;BME280;45919;51.420;5.454;2022-09-03T00:42:20;100945.91;;;17.65;44.93
59029;BME280;45919;51.420;5.454;2022-09-03T00:43:29;100949.50;;;17.59;44.95
59029;BME280;45919;51.420;5.454;2022-09-03T00:47:08;100950.41;;;17.58;44.99
59029;BME280;45919;51.420;5.454;2022-09-03T00:49:45;100947.66;;;17.64;44.95
59029;BME280;45919;51.420;5.454;2022-09-03T00:57:17;100945.22;;;17.50;45.14
59029;BME280;45919;51.420;5.454;2022-09-03T00:59:43;100948.88;;;17.40;45.36
59029;BME280;45919;51.420;5.454;2022-09-03T01:00:52;100944.47;;;17.39;45.23
59029;BME280;45919;51.420;5.454;2022-09-03T01:02:10;100933.81;;;17.47;45.14
59029;BME280;45919;51.420;5.454;2022-09-03T01:03:25;100937.41;;;17.39;45.26
59029;BME280;45919;51.420;5.454;2022-09-03T01:04:47;100940.03;;;17.41;45.26
59029;BME280;45919;51.420;5.454;2022-09-03T01:07:09;100939.25;;;17.32;45.40
59029;BME280;45919;51.420;5.454;2022-09-03T01:08:26;100943.63;;;17.35;45.51
59029;BME280;45919;51.420;5.454;2022-09-03T01:09:43;100938.31;;;17.38;45.34
59029;BME280;45919;51.420;5.454;2022-09-03T01:12:24;100937.47;;;17.33;45.54
59029;BME280;45919;51.420;5.454;2022-09-03T01:13:39;100934.91;;;17.28;45.56
59029;BME280;45919;51.420;5.454;2022-09-03T01:16:34;100926.94;;;17.35;45.45
59029;BME280;45919;51.420;5.454;2022-09-03T01:17:45;100927.91;;;17.23;45.82
59029;BME280;45919;51.420;5.454;2022-09-03T01:22:53;100927.09;;;17.19;45.83
59029;BME280;45919;51.420;5.454;2022-09-03T01:25:50;100927.91;;;17.23;45.69
59029;BME280;45919;51.420;5.454;2022-09-03T01:27:06;100924.47;;;17.17;45.90
59029;BME280;45919;51.420;5.454;2022-09-03T01:33:41;100939.50;;;17.09;45.99
59029;BME280;45919;51.420;5.454;2022-09-03T01:35:12;100929.78;;;17.11;45.97
59029;BME280;45919;51.420;5.454;2022-09-03T01:36:25;100931.66;;;17.00;46.19
59029;BME280;45919;51.420;5.454;2022-09-03T01:38:33;100931.69;;;16.98;46.38
59029;BME280;45919;51.420;5.454;2022-09-03T01:41:12;100937.72;;;17.08;46.11
59029;BME280;45919;51.420;5.454;2022-09-03T01:43:02;100899.25;;;16.87;45.96
59029;BME280;45919;51.420;5.454;2022-09-03T01:44:24;100928.09;;;17.02;46.29
59029;BME280;45919;51.420;5.454;2022-09-03T01:46:41;100928.19;;;16.96;46.63
59029;BME280;45919;51.420;5.454;2022-09-03T01:59:36;100931.78;;;16.89;46.26
59029;BME280;45919;51.420;5.454;2022-09-03T02:00:42;100935.34;;;16.83;46.47
59029;BME280;45919;51.420;5.454;2022-09-03T02:01:49;100935.34;;;16.81;46.42
59029;BME280;45919;51.420;5.454;2022-09-03T02:02:54;100926.56;;;16.79;46.58
59029;BME280;45919;51.420;5.454;2022-09-03T02:03:56;100934.50;;;16.78;46.65
59029;BME280;45919;51.420;5.454;2022-09-03T02:06:10;100923.06;;;16.77;46.77
59029;BME280;45919;51.420;5.454;2022-09-03T02:07:12;100923.97;;;16.76;46.61
59029;BME280;45919;51.420;5.454;2022-09-03T02:08:14;100927.50;;;16.73;46.85
59029;BME280;45919;51.420;5.454;2022-09-03T02:09:17;100928.38;;;16.74;46.86
59029;BME280;45919;51.420;5.454;2022-09-03T02:10:31;100885.44;;;16.56;46.77
59029;BME280;45919;51.420;5.454;2022-09-03T02:11:34;100921.34;;;16.73;46.88
59029;BME280;45919;51.420;5.454;2022-09-03T02:12:37;100924.88;;;16.72;46.73
59029;BME280;45919;51.420;5.454;2022-09-03T02:13:55;100899.41;;;16.68;46.83
59029;BME280;45919;51.420;5.454;2022-09-03T02:15:00;100926.63;;;16.73;46.86
59029;BME280;45919;51.420;5.454;2022-09-03T02:16:14;100915.22;;;16.72;46.96
59029;BME280;45919;51.420;5.454;2022-09-03T02:17:16;100920.53;;;16.68;46.78
59029;BME280;45919;51.420;5.454;2022-09-03T02:18:27;100927.53;;;16.72;47.02
59029;BME280;45919;51.420;5.454;2022-09-03T02:19:30;100919.69;;;16.64;46.89
59029;BME280;45919;51.420;5.454;2022-09-03T02:20:32;100942.53;;;16.65;47.40
59029;BME280;45919;51.420;5.454;2022-09-03T02:21:37;100918.78;;;16.67;47.09
59029;BME280;45919;51.420;5.454;2022-09-03T02:22:39;100917.06;;;16.63;47.25
59029;BME280;45919;51.420;5.454;2022-09-03T02:23:42;100906.56;;;16.58;47.40
59029;BME280;45919;51.420;5.454;2022-09-03T02:24:44;100923.22;;;16.61;47.27
59029;BME280;45919;51.420;5.454;2022-09-03T02:25:56;100926.66;;;16.70;47.23
59029;BME280;45919;51.420;5.454;2022-09-03T02:26:57;100924.97;;;16.61;47.12
59029;BME280;45919;51.420;5.454;2022-09-03T02:27:59;100920.59;;;16.58;47.11
59029;BME280;45919;51.420;5.454;2022-09-03T02:29:02;100925.88;;;16.58;47.15
59029;BME280;45919;51.420;5.454;2022-09-03T02:30:05;100921.50;;;16.57;47.00
59029;BME280;45919;51.420;5.454;2022-09-03T02:31:06;100927.63;;;16.56;47.39
59029;BME280;45919;51.420;5.454;2022-09-03T02:32:08;100930.28;;;16.55;47.36
59029;BME280;45919;51.420;5.454;2022-09-03T02:33:10;100902.31;;;16.36;47.42
59029;BME280;45919;51.420;5.454;2022-09-03T02:34:12;100928.56;;;16.54;47.50
59029;BME280;45919;51.420;5.454;2022-09-03T02:35:13;100928.59;;;16.51;47.42
59029;BME280;45919;51.420;5.454;2022-09-03T02:36:19;100925.06;;;16.52;47.40
59029;BME280;45919;51.420;5.454;2022-09-03T02:37:21;100925.06;;;16.50;47.45
59029;BME280;45919;51.420;5.454;2022-09-03T02:38:24;100927.72;;;16.48;47.68
59029;BME280;45919;51.420;5.454;2022-09-03T02:39:26;100919.81;;;16.45;47.63
59029;BME280;45919;51.420;5.454;2022-09-03T02:40:29;100926.88;;;16.46;47.64
59029;BME280;45919;51.420;5.454;2022-09-03T02:41:31;100926.88;;;16.45;47.67
59029;BME280;45919;51.420;5.454;2022-09-03T02:42:32;100922.50;;;16.42;47.88
59029;BME280;45919;51.420;5.454;2022-09-03T02:43:54;100926.78;;;16.56;47.56
59029;BME280;45919;51.420;5.454;2022-09-03T02:45:06;100931.22;;;16.47;47.80
59029;BME280;45919;51.420;5.454;2022-09-03T02:46:17;100929.50;;;16.46;47.50
59029;BME280;45919;51.420;5.454;2022-09-03T02:47:21;100923.22;;;16.58;47.24
59029;BME280;45919;51.420;5.454;2022-09-03T02:48:24;100921.63;;;16.40;47.67
59029;BME280;45919;51.420;5.454;2022-09-03T02:49:25;100923.41;;;16.38;47.76
59029;BME280;45919;51.420;5.454;2022-09-03T02:50:28;100916.41;;;16.34;47.84
59029;BME280;45919;51.420;5.454;2022-09-03T02:51:39;100919.00;;;16.43;47.71
59029;BME280;45919;51.420;5.454;2022-09-03T02:52:40;100917.28;;;16.33;48.00
59029;BME280;45919;51.420;5.454;2022-09-03T02:53:42;100926.06;;;16.33;47.87
59029;BME280;45919;51.420;5.454;2022-09-03T02:54:44;100891.06;;;16.16;48.15
59029;BME280;45919;51.420;5.454;2022-09-03T02:55:46;100918.19;;;16.30;47.90
59029;BME280;45919;51.420;5.454;2022-09-03T02:56:48;100883.19;;;16.11;47.96
59029;BME280;45919;51.420;5.454;2022-09-03T02:57:50;100923.47;;;16.30;48.04
59029;BME280;45919;51.420;5.454;2022-09-03T02:58:51;100920.84;;;16.29;48.05
59029;BME280;45919;51.420;5.454;2022-09-03T02:59:53;100924.34;;;16.29;48.05
59029;BME280;45919;51.420;5.454;2022-09-03T03:00:55;100928.75;;;16.29;48.01
59029;BME280;45919;51.420;5.454;2022-09-03T03:01:56;100929.63;;;16.29;48.34
59029;BME280;45919;51.420;5.454;2022-09-03T03:02:58;100925.25;;;16.28;48.02
59029;BME280;45919;51.420;5.454;2022-09-03T03:04:00;100912.13;;;16.19;48.30
59029;BME280;45919;51.420;5.454;2022-09-03T03:05:02;100923.50;;;16.29;48.27
59029;BME280;45919;51.420;5.454;2022-09-03T03:06:04;100890.25;;;16.06;48.06
59029;BME280;45919;51.420;5.454;2022-09-03T03:07:07;100929.63;;;16.29;48.28
59029;BME280;45919;51.420;5.454;2022-09-03T03:08:09;100932.25;;;16.28;48.40
59029;BME280;45919;51.420;5.454;2022-09-03T03:09:12;100927.91;;;16.27;48.18
59029;BME280;45919;51.420;5.454;2022-09-03T03:10:14;100927.00;;;16.26;48.28
59029;BME280;45919;51.420;5.454;2022-09-03T03:11:16;100934.91;;;16.28;48.01
59029;BME280;45919;51.420;5.454;2022-09-03T03:12:18;100934.91;;;16.26;48.26
59029;BME280;45919;51.420;5.454;2022-09-03T03:13:20;100937.56;;;16.24;48.29
59029;BME280;45919;51.420;5.454;2022-09-03T03:14:21;100920.94;;;16.18;48.30
59029;BME280;45919;51.420;5.454;2022-09-03T03:15:23;100936.69;;;16.22;48.25
59029;BME280;45919;51.420;5.454;2022-09-03T03:16:25;100937.59;;;16.23;48.11
59029;BME280;45919;51.420;5.454;2022-09-03T03:17:27;100900.81;;;16.04;48.12
59029;BME280;45919;51.420;5.454;2022-09-03T03:18:29;100934.97;;;16.21;48.23
59029;BME280;45919;51.420;5.454;2022-09-03T03:19:30;100937.59;;;16.21;48.28
59029;BME280;45919;51.420;5.454;2022-09-03T03:20:33;100934.06;;;16.21;48.34
59029;BME280;45919;51.420;5.454;2022-09-03T03:21:34;100929.69;;;16.18;48.30
59029;BME280;45919;51.420;5.454;2022-09-03T03:22:36;100925.31;;;16.19;48.18
59029;BME280;45919;51.420;5.454;2022-09-03T03:23:38;100931.47;;;16.16;48.43
59029;BME280;45919;51.420;5.454;2022-09-03T03:24:40;100922.72;;;16.14;48.32
59029;BME280;45919;51.420;5.454;2022-09-03T03:25:41;100921.84;;;16.13;48.36
59029;BME280;45919;51.420;5.454;2022-09-03T03:26:43;100928.84;;;16.13;48.39
59029;BME280;45919;51.420;5.454;2022-09-03T03:27:45;100931.50;;;16.11;48.49
59029;BME280;45919;51.420;5.454;2022-09-03T03:28:48;100917.50;;;16.05;48.58
59029;BME280;45919;51.420;5.454;2022-09-03T03:29:50;100911.31;;;15.99;48.59
59029;BME280;45919;51.420;5.454;2022-09-03T03:30:52;100932.41;;;16.06;48.54
59029;BME280;45919;51.420;5.454;2022-09-03T03:31:54;100922.75;;;16.06;48.49
59029;BME280;45919;51.420;5.454;2022-09-03T03:32:55;100928.91;;;16.04;48.67
59029;BME280;45919;51.420;5.454;2022-09-03T03:33:59;100923.63;;;16.04;48.71
59029;BME280;45919;51.420;5.454;2022-09-03T03:35:03;100907.03;;;15.87;48.73
59029;BME280;45919;51.420;5.454;2022-09-03T03:36:13;100913.09;;;16.05;48.76
59029;BME280;45919;51.420;5.454;2022-09-03T03:37:15;100927.19;;;16.01;48.65
59029;BME280;45919;51.420;5.454;2022-09-03T03:38:16;100923.66;;;15.99;48.76
59029;BME280;45919;51.420;5.454;2022-09-03T03:39:18;100918.38;;;15.94;48.90
59029;BME280;45919;51.420;5.454;2022-09-03T03:40:20;100924.50;;;15.98;48.69
59029;BME280;45919;51.420;5.454;2022-09-03T03:41:27;100892.09;;;15.83;48.82
59029;BME280;45919;51.420;5.454;2022-09-03T03:42:32;100926.28;;;15.99;48.61
59029;BME280;45919;51.420;5.454;2022-09-03T03:43:34;100931.56;;;15.97;48.81
59029;BME280;45919;51.420;5.454;2022-09-03T03:44:36;100929.78;;;15.96;48.82
59029;BME280;45919;51.420;5.454;2022-09-03T03:45:38;100919.28;;;15.95;48.90
59029;BME280;45919;51.420;5.454;2022-09-03T03:46:40;100926.28;;;15.96;48.87
59029;BME280;45919;51.420;5.454;2022-09-03T03:47:42;100924.56;;;15.93;48.95
59029;BME280;45919;51.420;5.454;2022-09-03T03:48:47;100930.69;;;15.97;49.15
59029;BME280;45919;51.420;5.454;2022-09-03T03:49:48;100926.28;;;15.94;48.93
59029;BME280;45919;51.420;5.454;2022-09-03T03:50:51;100934.19;;;15.94;48.98
59029;BME280;45919;51.420;5.454;2022-09-03T03:51:52;100921.91;;;15.93;48.74
59029;BME280;45919;51.420;5.454;2022-09-03T03:52:58;100929.78;;;15.96;48.90
59029;BME280;45919;51.420;5.454;2022-09-03T03:54:00;100925.44;;;15.94;48.98
59029;BME280;45919;51.420;5.454;2022-09-03T03:55:05;100923.66;;;15.94;48.91
59029;BME280;45919;51.420;5.454;2022-09-03T03:56:10;100928.94;;;15.97;48.91
59029;BME280;45919;51.420;5.454;2022-09-03T03:57:12;100907.06;;;15.83;48.96
59029;BME280;45919;51.420;5.454;2022-09-03T03:58:14;100928.91;;;15.96;48.74
59029;BME280;45919;51.420;5.454;2022-09-03T03:59:15;100928.06;;;15.95;48.98
59029;BME280;45919;51.420;5.454;2022-09-03T04:00:17;100888.66;;;15.70;49.03
59029;BME280;45919;51.420;5.454;2022-09-03T04:01:21;100927.16;;;15.95;48.98
59029;BME280;45919;51.420;5.454;2022-09-03T04:02:23;100931.53;;;15.96;48.87
59029;BME280;45919;51.420;5.454;2022-09-03T04:03:24;100924.53;;;15.95;48.83
59029;BME280;45919;51.420;5.454;2022-09-03T04:04:26;100844.91;;;15.47;48.83
59029;BME280;45919;51.420;5.454;2022-09-03T04:05:28;100921.03;;;15.94;48.97
59029;BME280;45919;51.420;5.454;2022-09-03T04:06:29;100917.53;;;15.95;48.85
59029;BME280;45919;51.420;5.454;2022-09-03T04:07:31;100923.66;;;15.97;48.78
59029;BME280;45919;51.420;5.454;2022-09-03T04:08:34;100931.56;;;15.97;48.82
59029;BME280;45919;51.420;5.454;2022-09-03T04:09:36;100918.41;;;15.93;48.96
59029;BME280;45919;51.420;5.454;2022-09-03T04:10:39;100911.38;;;15.88;48.87
59029;BME280;45919;51.420;5.454;2022-09-03T04:11:40;100917.53;;;15.90;48.73
59029;BME280;45919;51.420;5.454;2022-09-03T04:12:42;100925.41;;;15.95;48.69
59029;BME280;45919;51.420;5.454;2022-09-03T04:13:44;100928.06;;;15.95;48.59
59029;BME280;45919;51.420;5.454;2022-09-03T04:14:47;100919.25;;;15.96;48.82
59029;BME280;45919;51.420;5.454;2022-09-03T04:15:48;100921.91;;;15.93;48.98
59029;BME280;45919;51.420;5.454;2022-09-03T04:16:50;100926.28;;;15.94;48.89
59029;BME280;45919;51.420;5.454;2022-09-03T04:17:55;100932.41;;;15.98;48.85
59029;BME280;45919;51.420;5.454;2022-09-03T04:18:56;100926.28;;;15.94;49.02
59029;BME280;45919;51.420;5.454;2022-09-03T04:19:58;100923.66;;;15.94;48.87
59029;BME280;45919;51.420;5.454;2022-09-03T04:21:01;100924.53;;;15.96;48.92
59029;BME280;45919;51.420;5.454;2022-09-03T04:22:04;100919.28;;;15.95;48.85
59029;BME280;45919;51.420;5.454;2022-09-03T04:23:06;100914.00;;;15.95;48.65
59029;BME280;45919;51.420;5.454;2022-09-03T04:24:08;100924.53;;;15.96;48.69
59029;BME280;45919;51.420;5.454;2022-09-03T04:25:10;100896.53;;;15.83;48.81
59029;BME280;45919;51.420;5.454;2022-09-03T04:26:14;100928.06;;;16.00;48.80
59029;BME280;45919;51.420;5.454;2022-09-03T04:27:15;100911.41;;;15.90;48.76
59029;BME280;45919;51.420;5.454;2022-09-03T04:28:17;100926.28;;;15.99;48.86
59029;BME280;45919;51.420;5.454;2022-09-03T04:29:19;100918.38;;;15.97;48.97
59029;BME280;45919;51.420;5.454;2022-09-03T04:30:22;100877.22;;;15.76;48.70
59029;BME280;45919;51.420;5.454;2022-09-03T04:31:24;100886.88;;;15.80;48.74
59029;BME280;45919;51.420;5.454;2022-09-03T04:32:26;100922.75;;;15.98;48.89
59029;BME280;45919;51.420;5.454;2022-09-03T04:33:46;100926.28;;;15.99;48.75
59029;BME280;45919;51.420;5.454;2022-09-03T04:34:48;100913.16;;;15.89;48.93
59029;BME280;45919;51.420;5.454;2022-09-03T04:35:50;100921.88;;;15.98;48.88
59029;BME280;45919;51.420;5.454;2022-09-03T04:36:51;100913.97;;;15.98;49.11
59029;BME280;45919;51.420;5.454;2022-09-03T04:37:53;100915.75;;;15.96;49.04
59029;BME280;45919;51.420;5.454;2022-09-03T04:38:58;100920.16;;;16.00;49.10
59029;BME280;45919;51.420;5.454;2022-09-03T04:40:00;100920.13;;;15.97;49.28
59029;BME280;45919;51.420;5.454;2022-09-03T04:41:02;100908.69;;;15.98;49.10
59029;BME280;45919;51.420;5.454;2022-09-03T04:42:04;100921.88;;;15.98;49.00
59029;BME280;45919;51.420;5.454;2022-09-03T04:43:06;100913.97;;;15.98;49.14
59029;BME280;45919;51.420;5.454;2022-09-03T04:44:08;100909.59;;;15.97;49.00
59029;BME280;45919;51.420;5.454;2022-09-03T04:45:09;100908.72;;;15.96;49.15
59029;BME280;45919;51.420;5.454;2022-09-03T04:46:13;100907.84;;;15.96;49.00
59029;BME280;45919;51.420;5.454;2022-09-03T04:47:15;100926.28;;;15.97;49.31
59029;BME280;45919;51.420;5.454;2022-09-03T04:48:17;100921.88;;;15.96;49.42
59029;BME280;45919;51.420;5.454;2022-09-03T04:49:18;100924.53;;;15.96;49.27
59029;BME280;45919;51.420;5.454;2022-09-03T04:50:20;100919.25;;;15.96;49.38
59029;BME280;45919;51.420;5.454;2022-09-03T04:51:25;100911.34;;;15.98;49.16
59029;BME280;45919;51.420;5.454;2022-09-03T04:52:28;100897.41;;;15.78;48.98
59029;BME280;45919;51.420;5.454;2022-09-03T04:53:37;100921.91;;;16.02;49.02
59029;BME280;45919;51.420;5.454;2022-09-03T04:54:39;100928.03;;;15.97;49.06
59029;BME280;45919;51.420;5.454;2022-09-03T04:55:41;100924.53;;;15.96;49.08
59029;BME280;45919;51.420;5.454;2022-09-03T04:56:42;100899.13;;;15.81;49.26
59029;BME280;45919;51.420;5.454;2022-09-03T04:57:44;100925.41;;;15.98;48.94
59029;BME280;45919;51.420;5.454;2022-09-03T04:58:46;100921.88;;;15.96;49.10
59029;BME280;45919;51.420;5.454;2022-09-03T04:59:48;100929.75;;;15.99;49.01
59029;BME280;45919;51.420;5.454;2022-09-03T05:00:50;100921.88;;;15.98;49.13
59029;BME280;45919;51.420;5.454;2022-09-03T05:01:52;100889.53;;;15.77;49.20
59029;BME280;45919;51.420;5.454;2022-09-03T05:02:54;100923.66;;;16.00;49.25
59029;BME280;45919;51.420;5.454;2022-09-03T05:03:55;100921.88;;;15.98;49.16
59029;BME280;45919;51.420;5.454;2022-09-03T05:04:58;100926.28;;;15.99;49.18
59029;BME280;45919;51.420;5.454;2022-09-03T05:05:59;100925.41;;;15.98;49.10
59029;BME280;45919;51.420;5.454;2022-09-03T05:07:02;100921.03;;;15.94;49.18
59029;BME280;45919;51.420;5.454;2022-09-03T05:08:04;100887.75;;;15.76;49.41
59029;BME280;45919;51.420;5.454;2022-09-03T05:09:06;100922.75;;;15.98;49.25
59029;BME280;45919;51.420;5.454;2022-09-03T05:10:09;100918.38;;;16.02;49.47
59029;BME280;45919;51.420;5.454;2022-09-03T05:11:13;100928.91;;;16.02;49.33
59029;BME280;45919;51.420;5.454;2022-09-03T05:12:15;100898.22;;;15.88;49.14
59029;BME280;45919;51.420;5.454;2022-09-03T05:13:18;100918.38;;;16.02;49.24
59029;BME280;45919;51.420;5.454;2022-09-03T05:14:19;100923.63;;;16.04;49.28
59029;BME280;45919;51.420;5.454;2022-09-03T05:15:21;100913.13;;;16.00;49.48
59029;BME280;45919;51.420;5.454;2022-09-03T05:16:23;100920.13;;;16.05;49.41
59029;BME280;45919;51.420;5.454;2022-09-03T05:17:26;100918.38;;;16.07;49.23
59029;BME280;45919;51.420;5.454;2022-09-03T05:18:28;100921.84;;;16.07;49.25
59029;BME280;45919;51.420;5.454;2022-09-03T05:19:30;100916.59;;;16.07;49.29
59029;BME280;45919;51.420;5.454;2022-09-03T05:20:32;100920.97;;;16.10;49.28
59029;BME280;45919;51.420;5.454;2022-09-03T05:21:34;100925.34;;;16.11;49.01
59029;BME280;45919;51.420;5.454;2022-09-03T05:22:39;100911.31;;;16.10;49.04
59029;BME280;45919;51.420;5.454;2022-09-03T05:23:43;100918.31;;;16.11;49.12
59029;BME280;45919;51.420;5.454;2022-09-03T05:24:45;100923.59;;;16.11;49.08
59029;BME280;45919;51.420;5.454;2022-09-03T05:25:55;100913.91;;;16.17;49.31
59029;BME280;45919;51.420;5.454;2022-09-03T05:26:58;100868.41;;;15.82;49.26
59029;BME280;45919;51.420;5.454;2022-09-03T05:28:00;100914.81;;;16.14;49.18
59029;BME280;45919;51.420;5.454;2022-09-03T05:29:04;100920.91;;;16.16;49.25
59029;BME280;45919;51.420;5.454;2022-09-03T05:30:09;100927.97;;;16.16;48.84
59029;BME280;45919;51.420;5.454;2022-09-03T05:31:15;100908.69;;;16.10;49.46
59029;BME280;45919;51.420;5.454;2022-09-03T05:32:17;100903.41;;;16.12;49.10
59029;BME280;45919;51.420;5.454;2022-09-03T05:33:19;100914.75;;;16.20;49.05
59029;BME280;45919;51.420;5.454;2022-09-03T05:34:24;100912.09;;;16.22;48.86
59029;BME280;45919;51.420;5.454;2022-09-03T05:35:25;100892.81;;;16.15;49.05
59029;BME280;45919;51.420;5.454;2022-09-03T05:36:29;100912.06;;;16.28;49.00
59029;BME280;45919;51.420;5.454;2022-09-03T05:37:31;100887.53;;;16.17;49.04
59029;BME280;45919;51.420;5.454;2022-09-03T05:38:33;100917.28;;;16.33;49.06
59029;BME280;45919;51.420;5.454;2022-09-03T05:39:35;100913.78;;;16.34;49.09
59029;BME280;45919;51.420;5.454;2022-09-03T05:40:36;100919.94;;;16.36;48.57
59029;BME280;45919;51.420;5.454;2022-09-03T05:41:38;100891.94;;;16.19;48.63
59029;BME280;45919;51.420;5.454;2022-09-03T05:42:40;100905.91;;;16.28;48.62
59029;BME280;45919;51.420;5.454;2022-09-03T05:43:42;100913.75;;;16.37;49.07
59029;BME280;45919;51.420;5.454;2022-09-03T05:44:44;100920.75;;;16.43;48.68
59029;BME280;45919;51.420;5.454;2022-09-03T05:45:45;100888.41;;;16.20;48.63
59029;BME280;45919;51.420;5.454;2022-09-03T05:46:48;100928.63;;;16.46;48.88
59029;BME280;45919;51.420;5.454;2022-09-03T05:47:50;100922.47;;;16.47;48.84
59029;BME280;45919;51.420;5.454;2022-09-03T05:48:51;100922.44;;;16.50;48.80
59029;BME280;45919;51.420;5.454;2022-09-03T05:49:53;100924.25;;;16.43;48.74
59029;BME280;45919;51.420;5.454;2022-09-03T05:51:16;100917.88;;;16.69;48.65
59029;BME280;45919;51.420;5.454;2022-09-03T05:52:18;100894.38;;;16.41;48.79
59029;BME280;45919;51.420;5.454;2022-09-03T05:53:21;100921.50;;;16.57;48.37
59029;BME280;45919;51.420;5.454;2022-09-03T05:54:23;100906.63;;;16.45;48.55
59029;BME280;45919;51.420;5.454;2022-09-03T05:55:25;100917.06;;;16.61;48.58
59029;BME280;45919;51.420;5.454;2022-09-03T05:56:30;100911.78;;;16.63;48.56
59029;BME280;45919;51.420;5.454;2022-09-03T05:57:32;100914.44;;;16.59;48.43
59029;BME280;45919;51.420;5.454;2022-09-03T05:58:37;100924.03;;;16.68;48.36
59029;BME280;45919;51.420;5.454;2022-09-03T05:59:39;100916.13;;;16.68;48.53
59029;BME280;45919;51.420;5.454;2022-09-03T06:00:41;100923.97;;;16.73;48.38
59029;BME280;45919;51.420;5.454;2022-09-03T06:01:44;100921.31;;;16.78;48.20
59029;BME280;45919;51.420;5.454;2022-09-03T06:02:51;100924.75;;;16.84;48.25
59029;BME280;45919;51.420;5.454;2022-09-03T06:04:55;100923.88;;;16.87;48.36
59029;BME280;45919;51.420;5.454;2022-09-03T06:05:58;100916.78;;;16.89;48.11
59029;BME280;45919;51.420;5.454;2022-09-03T06:06:59;100920.28;;;16.93;48.09
59029;BME280;45919;51.420;5.454;2022-09-03T06:08:01;100920.25;;;16.97;48.15
59029;BME280;45919;51.420;5.454;2022-09-03T06:09:05;100929.03;;;17.00;48.08
59029;BME280;45919;51.420;5.454;2022-09-03T06:10:07;100916.69;;;17.02;48.34
59029;BME280;45919;51.420;5.454;2022-09-03T06:11:09;100911.41;;;17.03;47.94
59029;BME280;45919;51.420;5.454;2022-09-03T06:12:11;100920.13;;;17.12;47.87
59029;BME280;45919;51.420;5.454;2022-09-03T06:13:13;100916.56;;;17.16;47.57
59029;BME280;45919;51.420;5.454;2022-09-03T06:14:15;100923.59;;;17.17;48.15
59029;BME280;45919;51.420;5.454;2022-09-03T06:15:17;100919.13;;;17.20;47.69
59029;BME280;45919;51.420;5.454;2022-09-03T06:16:18;100917.34;;;17.24;47.35
59029;BME280;45919;51.420;5.454;2022-09-03T06:17:21;100916.38;;;17.31;47.25
59029;BME280;45919;51.420;5.454;2022-09-03T06:18:24;100920.75;;;17.36;47.32
59029;BME280;45919;51.420;5.454;2022-09-03T06:19:26;100923.34;;;17.37;47.75
59029;BME280;45919;51.420;5.454;2022-09-03T06:20:27;100923.38;;;17.36;47.28
59029;BME280;45919;51.420;5.454;2022-09-03T06:21:29;100925.94;;;17.43;47.60
59029;BME280;45919;51.420;5.454;2022-09-03T06:22:30;100926.75;;;17.49;47.39
59029;BME280;45919;51.420;5.454;2022-09-03T06:23:33;100928.44;;;17.54;47.35
59029;BME280;45919;51.420;5.454;2022-09-03T06:24:35;100922.22;;;17.57;47.51
59029;BME280;45919;51.420;5.454;2022-09-03T06:25:37;100929.19;;;17.63;47.52
59029;BME280;45919;51.420;5.454;2022-09-03T06:26:39;100892.47;;;17.45;46.97
59029;BME280;45919;51.420;5.454;2022-09-03T06:27:40;100912.47;;;17.64;47.11
59029;BME280;45919;51.420;5.454;2022-09-03T06:28:43;100920.28;;;17.72;46.81